sensor_id;sensor_type;location;lat;lon;timestamp;P1;durP1;ratioP1;P2;durP2;ratioP2
18144;SDS011;14857;41.200;-8.326;2022-10-16T00:01:47;5.75;;;2.53;;
18144;SDS011;14857;41.200;-8.326;2022-10-16T00:04:15;6.80;;;2.33;;
18144;SDS011;14857;41.200;-8.326;2022-10-16T00:06:44;3.50;;;2.42;;
18144;SDS011;14857;41.200;-8.326;2022-10-16T00:09:12;4.00;;;2.47;;
18144;SDS011;14857;41.200;-8.326;2022-10-16T00:11:41;5.07;;;2.50;;
18144;SDS011;14857;41.200;-8.326;2022-10-16T00:14:12;4.47;;;2.85;;
18144;SDS011;14857;41.200;-8.326;2022-10-16T00:16:42;5.28;;;2.67;;
18144;SDS011;14857;41.200;-8.326;2022-10-16T00:19:11;5.15;;;2.67;;
18144;SDS011;14857;41.200;-8.326;2022-10-16T00:21:39;5.13;;;2.67;;
18144;SDS011;14857;41.200;-8.326;2022-10-16T00:24:28;4.75;;;2.42;;
18144;SDS011;14857;41.200;-8.326;2022-10-16T00:26:56;9.80;;;2.80;;
18144;SDS011;14857;41.200;-8.326;2022-10-16T00:29:26;4.32;;;2.55;;
18144;SDS011;14857;41.200;-8.326;2022-10-16T00:31:56;4.70;;;2.75;;
18144;SDS011;14857;41.200;-8.326;2022-10-16T00:34:24;4.10;;;2.30;;
18144;SDS011;14857;41.200;-8.326;2022-10-16T00:36:53;5.93;;;2.90;;
18144;SDS011;14857;41.200;-8.326;2022-10-16T00:39:21;6.25;;;2.50;;
18144;SDS011;14857;41.200;-8.326;2022-10-16T00:41:51;4.72;;;2.55;;
18144;SDS011;14857;41.200;-8.326;2022-10-16T00:47:15;4.03;;;2.63;;
18144;SDS011;14857;41.200;-8.326;2022-10-16T00:49:47;9.88;;;3.20;;
18144;SDS011;14857;41.200;-8.326;2022-10-16T00:52:19;5.38;;;2.90;;
18144;SDS011;14857;41.200;-8.326;2022-10-16T00:54:49;4.65;;;2.47;;
18144;SDS011;14857;41.200;-8.326;2022-10-16T00:57:18;5.75;;;2.70;;
18144;SDS011;14857;41.200;-8.326;2022-10-16T00:59:48;5.88;;;3.13;;
18144;SDS011;14857;41.200;-8.326;2022-10-16T01:02:17;6.43;;;3.10;;
18144;SDS011;14857;41.200;-8.326;2022-10-16T01:04:46;3.90;;;2.30;;
18144;SDS011;14857;41.200;-8.326;2022-10-16T01:07:20;5.72;;;3.40;;
18144;SDS011;14857;41.200;-8.326;2022-10-16T01:10:02;3.67;;;2.33;;
18144;SDS011;14857;41.200;-8.326;2022-10-16T01:12:38;7.82;;;2.97;;
18144;SDS011;14857;41.200;-8.326;2022-10-16T01:15:17;4.95;;;2.60;;
18144;SDS011;14857;41.200;-8.326;2022-10-16T01:17:53;4.57;;;2.80;;
18144;SDS011;14857;41.200;-8.326;2022-10-16T01:20:29;5.82;;;3.30;;
18144;SDS011;14857;41.200;-8.326;2022-10-16T01:23:05;4.32;;;2.80;;
18144;SDS011;14857;41.200;-8.326;2022-10-16T01:25:55;4.15;;;2.92;;
18144;SDS011;14857;41.200;-8.326;2022-10-16T01:28:36;5.70;;;2.75;;
18144;SDS011;14857;41.200;-8.326;2022-10-16T01:31:09;7.93;;;2.88;;
18144;SDS011;14857;41.200;-8.326;2022-10-16T01:33:42;4.15;;;2.80;;
18144;SDS011;14857;41.200;-8.326;2022-10-16T01:36:14;8.57;;;3.60;;
18144;SDS011;14857;41.200;-8.326;2022-10-16T01:38:46;8.88;;;3.10;;
18144;SDS011;14857;41.200;-8.326;2022-10-16T01:41:19;7.15;;;3.40;;
18144;SDS011;14857;41.200;-8.326;2022-10-16T01:43:53;6.40;;;3.22;;
18144;SDS011;14857;41.200;-8.326;2022-10-16T01:46:29;6.00;;;3.33;;
18144;SDS011;14857;41.200;-8.326;2022-10-16T01:49:00;7.75;;;3.40;;
18144;SDS011;14857;41.200;-8.326;2022-10-16T01:51:29;6.40;;;3.60;;
18144;SDS011;14857;41.200;-8.326;2022-10-16T01:53:59;6.60;;;3.55;;
18144;SDS011;14857;41.200;-8.326;2022-10-16T01:56:30;8.10;;;3.10;;
18144;SDS011;14857;41.200;-8.326;2022-10-16T01:59:01;7.78;;;3.08;;
18144;SDS011;14857;41.200;-8.326;2022-10-16T02:01:34;7.85;;;3.20;;
18144;SDS011;14857;41.200;-8.326;2022-10-16T02:04:07;5.47;;;3.05;;
18144;SDS011;14857;41.200;-8.326;2022-10-16T02:06:39;6.70;;;2.67;;
18144;SDS011;14857;41.200;-8.326;2022-10-16T02:09:08;5.63;;;2.80;;
18144;SDS011;14857;41.200;-8.326;2022-10-16T02:11:36;5.78;;;2.53;;
18144;SDS011;14857;41.200;-8.326;2022-10-16T02:14:06;6.18;;;2.75;;
18144;SDS011;14857;41.200;-8.326;2022-10-16T02:16:36;4.28;;;2.58;;
18144;SDS011;14857;41.200;-8.326;2022-10-16T02:19:06;6.22;;;2.65;;
18144;SDS011;14857;41.200;-8.326;2022-10-16T02:21:38;5.30;;;3.33;;
18144;SDS011;14857;41.200;-8.326;2022-10-16T02:24:12;6.38;;;3.10;;
18144;SDS011;14857;41.200;-8.326;2022-10-16T02:26:48;7.32;;;3.13;;
18144;SDS011;14857;41.200;-8.326;2022-10-16T02:29:22;7.22;;;3.10;;
18144;SDS011;14857;41.200;-8.326;2022-10-16T02:31:54;4.55;;;2.55;;
18144;SDS011;14857;41.200;-8.326;2022-10-16T02:34:25;9.05;;;3.83;;
18144;SDS011;14857;41.200;-8.326;2022-10-16T02:36:57;5.65;;;3.58;;
18144;SDS011;14857;41.200;-8.326;2022-10-16T02:39:29;9.27;;;3.15;;
18144;SDS011;14857;41.200;-8.326;2022-10-16T02:41:58;6.60;;;3.17;;
18144;SDS011;14857;41.200;-8.326;2022-10-16T02:44:28;5.25;;;3.03;;
18144;SDS011;14857;41.200;-8.326;2022-10-16T02:46:56;6.50;;;3.10;;
18144;SDS011;14857;41.200;-8.326;2022-10-16T02:49:25;5.82;;;3.40;;
18144;SDS011;14857;41.200;-8.326;2022-10-16T02:51:53;9.80;;;3.38;;
18144;SDS011;14857;41.200;-8.326;2022-10-16T02:54:22;8.05;;;3.40;;
18144;SDS011;14857;41.200;-8.326;2022-10-16T02:56:50;5.15;;;3.20;;
18144;SDS011;14857;41.200;-8.326;2022-10-16T02:59:19;5.00;;;2.70;;
18144;SDS011;14857;41.200;-8.326;2022-10-16T03:01:49;5.97;;;3.17;;
18144;SDS011;14857;41.200;-8.326;2022-10-16T03:04:18;6.82;;;3.20;;
18144;SDS011;14857;41.200;-8.326;2022-10-16T03:06:46;7.70;;;3.30;;
18144;SDS011;14857;41.200;-8.326;2022-10-16T03:09:15;8.45;;;3.53;;
18144;SDS011;14857;41.200;-8.326;2022-10-16T03:11:43;6.47;;;2.97;;
18144;SDS011;14857;41.200;-8.326;2022-10-16T03:14:12;5.25;;;2.63;;
18144;SDS011;14857;41.200;-8.326;2022-10-16T03:16:42;5.30;;;2.30;;
18144;SDS011;14857;41.200;-8.326;2022-10-16T03:19:12;3.40;;;2.25;;
18144;SDS011;14857;41.200;-8.326;2022-10-16T03:21:41;4.57;;;2.47;;
18144;SDS011;14857;41.200;-8.326;2022-10-16T03:24:09;6.13;;;2.28;;
18144;SDS011;14857;41.200;-8.326;2022-10-16T03:26:37;4.07;;;2.45;;
18144;SDS011;14857;41.200;-8.326;2022-10-16T03:29:06;9.18;;;2.25;;
18144;SDS011;14857;41.200;-8.326;2022-10-16T03:31:35;4.18;;;2.47;;
18144;SDS011;14857;41.200;-8.326;2022-10-16T03:34:03;4.80;;;2.10;;
18144;SDS011;14857;41.200;-8.326;2022-10-16T03:36:33;4.63;;;2.40;;
18144;SDS011;14857;41.200;-8.326;2022-10-16T03:39:01;4.60;;;2.47;;
18144;SDS011;14857;41.200;-8.326;2022-10-16T03:41:30;4.07;;;2.30;;
18144;SDS011;14857;41.200;-8.326;2022-10-16T03:43:59;5.15;;;2.80;;
18144;SDS011;14857;41.200;-8.326;2022-10-16T03:46:27;7.57;;;2.60;;
18144;SDS011;14857;41.200;-8.326;2022-10-16T03:48:56;4.68;;;2.60;;
18144;SDS011;14857;41.200;-8.326;2022-10-16T03:51:24;8.27;;;2.60;;
18144;SDS011;14857;41.200;-8.326;2022-10-16T03:53:54;3.67;;;2.05;;
18144;SDS011;14857;41.200;-8.326;2022-10-16T03:56:22;5.55;;;2.47;;
18144;SDS011;14857;41.200;-8.326;2022-10-16T03:58:51;3.90;;;2.25;;
18144;SDS011;14857;41.200;-8.326;2022-10-16T04:01:20;3.35;;;2.00;;
18144;SDS011;14857;41.200;-8.326;2022-10-16T04:03:48;3.60;;;2.13;;
18144;SDS011;14857;41.200;-8.326;2022-10-16T04:06:17;5.53;;;2.20;;
18144;SDS011;14857;41.200;-8.326;2022-10-16T04:08:45;3.25;;;2.00;;
18144;SDS011;14857;41.200;-8.326;2022-10-16T04:11:15;5.40;;;1.85;;
18144;SDS011;14857;41.200;-8.326;2022-10-16T04:13:44;4.13;;;1.83;;
18144;SDS011;14857;41.200;-8.326;2022-10-16T04:16:12;2.97;;;1.52;;
18144;SDS011;14857;41.200;-8.326;2022-10-16T04:18:41;3.10;;;1.67;;
18144;SDS011;14857;41.200;-8.326;2022-10-16T04:21:09;3.35;;;1.85;;
18144;SDS011;14857;41.200;-8.326;2022-10-16T04:23:38;3.50;;;1.98;;
18144;SDS011;14857;41.200;-8.326;2022-10-16T04:26:06;3.05;;;1.73;;
18144;SDS011;14857;41.200;-8.326;2022-10-16T04:28:36;5.45;;;2.30;;
18144;SDS011;14857;41.200;-8.326;2022-10-16T04:31:05;3.35;;;1.38;;
18144;SDS011;14857;41.200;-8.326;2022-10-16T04:33:33;4.07;;;2.17;;
18144;SDS011;14857;41.200;-8.326;2022-10-16T04:36:02;3.20;;;1.90;;
18144;SDS011;14857;41.200;-8.326;2022-10-16T04:38:31;3.72;;;1.88;;
18144;SDS011;14857;41.200;-8.326;2022-10-16T04:41:00;4.90;;;1.83;;
18144;SDS011;14857;41.200;-8.326;2022-10-16T04:43:28;3.75;;;2.20;;
18144;SDS011;14857;41.200;-8.326;2022-10-16T04:45:58;3.97;;;2.00;;
18144;SDS011;14857;41.200;-8.326;2022-10-16T04:48:27;6.15;;;1.90;;
18144;SDS011;14857;41.200;-8.326;2022-10-16T04:50:55;3.55;;;1.80;;
18144;SDS011;14857;41.200;-8.326;2022-10-16T04:53:24;6.13;;;2.30;;
18144;SDS011;14857;41.200;-8.326;2022-10-16T04:55:52;6.53;;;1.98;;
18144;SDS011;14857;41.200;-8.326;2022-10-16T04:58:21;3.30;;;1.90;;
18144;SDS011;14857;41.200;-8.326;2022-10-16T05:03:54;4.80;;;2.00;;
18144;SDS011;14857;41.200;-8.326;2022-10-16T05:06:23;3.78;;;2.30;;
18144;SDS011;14857;41.200;-8.326;2022-10-16T05:08:52;2.72;;;1.70;;
18144;SDS011;14857;41.200;-8.326;2022-10-16T05:11:20;2.63;;;2.00;;
18144;SDS011;14857;41.200;-8.326;2022-10-16T05:13:48;2.55;;;1.83;;
18144;SDS011;14857;41.200;-8.326;2022-10-16T05:16:21;2.65;;;2.00;;
18144;SDS011;14857;41.200;-8.326;2022-10-16T05:18:50;2.65;;;1.83;;
18144;SDS011;14857;41.200;-8.326;2022-10-16T05:21:31;4.00;;;2.15;;
18144;SDS011;14857;41.200;-8.326;2022-10-16T05:23:59;4.15;;;2.20;;
18144;SDS011;14857;41.200;-8.326;2022-10-16T05:26:28;3.88;;;1.65;;
18144;SDS011;14857;41.200;-8.326;2022-10-16T05:28:56;3.25;;;1.70;;
18144;SDS011;14857;41.200;-8.326;2022-10-16T05:31:25;3.17;;;1.92;;
18144;SDS011;14857;41.200;-8.326;2022-10-16T05:33:57;5.47;;;2.00;;
18144;SDS011;14857;41.200;-8.326;2022-10-16T05:36:26;3.75;;;2.17;;
18144;SDS011;14857;41.200;-8.326;2022-10-16T05:38:56;2.08;;;1.58;;
18144;SDS011;14857;41.200;-8.326;2022-10-16T05:41:25;5.00;;;1.92;;
18144;SDS011;14857;41.200;-8.326;2022-10-16T05:43:53;4.20;;;2.33;;
18144;SDS011;14857;41.200;-8.326;2022-10-16T05:46:22;4.22;;;1.67;;
18144;SDS011;14857;41.200;-8.326;2022-10-16T05:48:51;2.20;;;1.42;;
18144;SDS011;14857;41.200;-8.326;2022-10-16T05:51:20;1.65;;;1.27;;
18144;SDS011;14857;41.200;-8.326;2022-10-16T05:53:49;3.33;;;0.90;;
18144;SDS011;14857;41.200;-8.326;2022-10-16T05:56:19;2.15;;;0.73;;
18144;SDS011;14857;41.200;-8.326;2022-10-16T05:58:47;3.78;;;0.90;;
18144;SDS011;14857;41.200;-8.326;2022-10-16T06:01:16;1.25;;;0.85;;
18144;SDS011;14857;41.200;-8.326;2022-10-16T06:03:47;1.35;;;0.57;;
18144;SDS011;14857;41.200;-8.326;2022-10-16T06:06:16;1.70;;;1.00;;
18144;SDS011;14857;41.200;-8.326;2022-10-16T06:08:47;0.85;;;0.70;;
18144;SDS011;14857;41.200;-8.326;2022-10-16T06:11:19;0.93;;;0.70;;
18144;SDS011;14857;41.200;-8.326;2022-10-16T06:13:49;0.80;;;0.50;;
18144;SDS011;14857;41.200;-8.326;2022-10-16T06:16:17;1.20;;;0.90;;
18144;SDS011;14857;41.200;-8.326;2022-10-16T06:18:46;1.23;;;0.93;;
18144;SDS011;14857;41.200;-8.326;2022-10-16T06:21:16;1.17;;;0.88;;
18144;SDS011;14857;41.200;-8.326;2022-10-16T06:23:46;1.50;;;0.82;;
18144;SDS011;14857;41.200;-8.326;2022-10-16T06:26:16;2.95;;;1.63;;
18144;SDS011;14857;41.200;-8.326;2022-10-16T06:28:48;1.02;;;0.80;;
18144;SDS011;14857;41.200;-8.326;2022-10-16T06:31:17;1.58;;;0.68;;
18144;SDS011;14857;41.200;-8.326;2022-10-16T06:33:49;3.03;;;0.95;;
18144;SDS011;14857;41.200;-8.326;2022-10-16T06:36:19;1.38;;;1.00;;
18144;SDS011;14857;41.200;-8.326;2022-10-16T06:38:48;1.00;;;0.70;;
18144;SDS011;14857;41.200;-8.326;2022-10-16T06:41:17;0.90;;;0.80;;
18144;SDS011;14857;41.200;-8.326;2022-10-16T06:43:48;1.15;;;0.65;;
18144;SDS011;14857;41.200;-8.326;2022-10-16T06:46:18;0.82;;;0.70;;
18144;SDS011;14857;41.200;-8.326;2022-10-16T06:48:48;0.88;;;0.68;;
18144;SDS011;14857;41.200;-8.326;2022-10-16T06:51:17;2.65;;;0.60;;
18144;SDS011;14857;41.200;-8.326;2022-10-16T06:53:47;0.98;;;0.55;;
18144;SDS011;14857;41.200;-8.326;2022-10-16T06:56:29;0.75;;;0.52;;
18144;SDS011;14857;41.200;-8.326;2022-10-16T06:59:00;0.68;;;0.60;;
18144;SDS011;14857;41.200;-8.326;2022-10-16T07:01:30;0.95;;;0.60;;
18144;SDS011;14857;41.200;-8.326;2022-10-16T07:03:59;0.90;;;0.60;;
18144;SDS011;14857;41.200;-8.326;2022-10-16T07:06:30;0.40;;;0.40;;
18144;SDS011;14857;41.200;-8.326;2022-10-16T07:09:01;1.75;;;0.40;;
18144;SDS011;14857;41.200;-8.326;2022-10-16T07:11:32;0.47;;;0.40;;
18144;SDS011;14857;41.200;-8.326;2022-10-16T07:14:02;0.65;;;0.50;;
18144;SDS011;14857;41.200;-8.326;2022-10-16T07:16:32;0.50;;;0.50;;
18144;SDS011;14857;41.200;-8.326;2022-10-16T07:19:01;0.43;;;0.43;;
18144;SDS011;14857;41.200;-8.326;2022-10-16T07:21:30;0.70;;;0.70;;
18144;SDS011;14857;41.200;-8.326;2022-10-16T07:24:04;1.50;;;0.80;;
18144;SDS011;14857;41.200;-8.326;2022-10-16T07:26:35;1.33;;;0.73;;
18144;SDS011;14857;41.200;-8.326;2022-10-16T07:29:09;0.80;;;0.70;;
18144;SDS011;14857;41.200;-8.326;2022-10-16T07:31:40;2.80;;;0.70;;
18144;SDS011;14857;41.200;-8.326;2022-10-16T07:34:09;0.80;;;0.70;;
18144;SDS011;14857;41.200;-8.326;2022-10-16T07:36:39;0.63;;;0.60;;
18144;SDS011;14857;41.200;-8.326;2022-10-16T07:39:12;3.10;;;1.00;;
18144;SDS011;14857;41.200;-8.326;2022-10-16T07:41:41;0.93;;;0.80;;
18144;SDS011;14857;41.200;-8.326;2022-10-16T07:44:11;1.10;;;0.68;;
18144;SDS011;14857;41.200;-8.326;2022-10-16T07:46:39;0.95;;;0.55;;
18144;SDS011;14857;41.200;-8.326;2022-10-16T07:49:08;2.85;;;0.60;;
18144;SDS011;14857;41.200;-8.326;2022-10-16T07:51:37;1.95;;;0.43;;
18144;SDS011;14857;41.200;-8.326;2022-10-16T07:54:07;0.93;;;0.63;;
18144;SDS011;14857;41.200;-8.326;2022-10-16T07:56:36;0.98;;;0.60;;
18144;SDS011;14857;41.200;-8.326;2022-10-16T07:59:10;1.55;;;0.70;;
18144;SDS011;14857;41.200;-8.326;2022-10-16T08:01:39;0.77;;;0.38;;
18144;SDS011;14857;41.200;-8.326;2022-10-16T08:04:09;1.20;;;0.70;;
18144;SDS011;14857;41.200;-8.326;2022-10-16T08:06:39;2.28;;;0.82;;
18144;SDS011;14857;41.200;-8.326;2022-10-16T08:09:08;1.13;;;0.60;;
18144;SDS011;14857;41.200;-8.326;2022-10-16T08:11:37;2.60;;;0.70;;
18144;SDS011;14857;41.200;-8.326;2022-10-16T08:14:05;0.93;;;0.47;;
18144;SDS011;14857;41.200;-8.326;2022-10-16T08:16:35;2.92;;;0.77;;
18144;SDS011;14857;41.200;-8.326;2022-10-16T08:19:04;1.83;;;0.55;;
18144;SDS011;14857;41.200;-8.326;2022-10-16T08:21:32;1.27;;;0.60;;
18144;SDS011;14857;41.200;-8.326;2022-10-16T08:24:01;1.38;;;0.80;;
18144;SDS011;14857;41.200;-8.326;2022-10-16T08:26:29;1.40;;;0.88;;
18144;SDS011;14857;41.200;-8.326;2022-10-16T08:28:58;3.47;;;1.00;;
18144;SDS011;14857;41.200;-8.326;2022-10-16T08:31:26;4.97;;;1.40;;
18144;SDS011;14857;41.200;-8.326;2022-10-16T08:33:56;3.00;;;1.17;;
18144;SDS011;14857;41.200;-8.326;2022-10-16T08:36:25;3.30;;;1.50;;
18144;SDS011;14857;41.200;-8.326;2022-10-16T08:38:53;4.85;;;1.50;;
18144;SDS011;14857;41.200;-8.326;2022-10-16T08:44:31;2.78;;;1.13;;
18144;SDS011;14857;41.200;-8.326;2022-10-16T08:47:17;1.00;;;0.70;;
18144;SDS011;14857;41.200;-8.326;2022-10-16T08:49:54;0.93;;;0.63;;
18144;SDS011;14857;41.200;-8.326;2022-10-16T08:52:25;1.38;;;0.65;;
18144;SDS011;14857;41.200;-8.326;2022-10-16T08:54:57;6.28;;;0.88;;
18144;SDS011;14857;41.200;-8.326;2022-10-16T08:57:26;0.50;;;0.40;;
18144;SDS011;14857;41.200;-8.326;2022-10-16T08:59:57;1.10;;;0.60;;
18144;SDS011;14857;41.200;-8.326;2022-10-16T09:02:31;1.27;;;0.47;;
18144;SDS011;14857;41.200;-8.326;2022-10-16T09:05:08;1.42;;;0.50;;
18144;SDS011;14857;41.200;-8.326;2022-10-16T09:07:48;0.25;;;0.25;;
18144;SDS011;14857;41.200;-8.326;2022-10-16T09:10:33;0.90;;;0.40;;
18144;SDS011;14857;41.200;-8.326;2022-10-16T09:13:14;0.40;;;0.40;;
18144;SDS011;14857;41.200;-8.326;2022-10-16T09:15:49;0.40;;;0.40;;
18144;SDS011;14857;41.200;-8.326;2022-10-16T09:18:25;0.50;;;0.47;;
18144;SDS011;14857;41.200;-8.326;2022-10-16T09:21:04;0.75;;;0.40;;
18144;SDS011;14857;41.200;-8.326;2022-10-16T09:23:38;1.40;;;0.80;;
18144;SDS011;14857;41.200;-8.326;2022-10-16T09:26:09;2.80;;;0.95;;
18144;SDS011;14857;41.200;-8.326;2022-10-16T09:28:40;3.42;;;1.40;;
18144;SDS011;14857;41.200;-8.326;2022-10-16T09:31:12;4.28;;;1.08;;
18144;SDS011;14857;41.200;-8.326;2022-10-16T09:33:45;1.85;;;1.00;;
18144;SDS011;14857;41.200;-8.326;2022-10-16T09:36:19;1.42;;;0.93;;
18144;SDS011;14857;41.200;-8.326;2022-10-16T09:38:49;1.05;;;0.82;;
18144;SDS011;14857;41.200;-8.326;2022-10-16T09:41:21;1.10;;;0.90;;
18144;SDS011;14857;41.200;-8.326;2022-10-16T09:43:52;2.72;;;1.35;;
18144;SDS011;14857;41.200;-8.326;2022-10-16T09:46:27;4.78;;;1.17;;
18144;SDS011;14857;41.200;-8.326;2022-10-16T09:48:59;2.38;;;1.10;;
18144;SDS011;14857;41.200;-8.326;2022-10-16T09:51:30;3.97;;;1.30;;
18144;SDS011;14857;41.200;-8.326;2022-10-16T09:54:01;3.97;;;1.70;;
18144;SDS011;14857;41.200;-8.326;2022-10-16T09:56:40;2.58;;;1.27;;
18144;SDS011;14857;41.200;-8.326;2022-10-16T09:59:13;2.15;;;1.55;;
18144;SDS011;14857;41.200;-8.326;2022-10-16T10:01:44;1.33;;;1.05;;
18144;SDS011;14857;41.200;-8.326;2022-10-16T10:04:15;2.58;;;1.40;;
18144;SDS011;14857;41.200;-8.326;2022-10-16T10:06:46;2.35;;;1.58;;
18144;SDS011;14857;41.200;-8.326;2022-10-16T10:09:17;2.17;;;0.95;;
18144;SDS011;14857;41.200;-8.326;2022-10-16T10:11:50;4.38;;;2.05;;
18144;SDS011;14857;41.200;-8.326;2022-10-16T10:14:24;3.10;;;1.33;;
18144;SDS011;14857;41.200;-8.326;2022-10-16T10:17:14;1.27;;;1.15;;
18144;SDS011;14857;41.200;-8.326;2022-10-16T10:19:47;2.70;;;1.83;;
18144;SDS011;14857;41.200;-8.326;2022-10-16T10:22:21;2.40;;;1.45;;
18144;SDS011;14857;41.200;-8.326;2022-10-16T10:24:56;2.80;;;2.28;;
18144;SDS011;14857;41.200;-8.326;2022-10-16T10:27:32;4.45;;;1.58;;
18144;SDS011;14857;41.200;-8.326;2022-10-16T10:30:08;2.33;;;1.52;;
18144;SDS011;14857;41.200;-8.326;2022-10-16T10:32:45;2.30;;;1.20;;
18144;SDS011;14857;41.200;-8.326;2022-10-16T10:35:27;1.95;;;1.50;;
18144;SDS011;14857;41.200;-8.326;2022-10-16T10:38:12;4.10;;;2.42;;
18144;SDS011;14857;41.200;-8.326;2022-10-16T10:40:50;4.75;;;1.90;;
18144;SDS011;14857;41.200;-8.326;2022-10-16T10:43:27;2.33;;;1.60;;
18144;SDS011;14857;41.200;-8.326;2022-10-16T10:46:05;1.80;;;1.30;;
18144;SDS011;14857;41.200;-8.326;2022-10-16T10:48:46;2.05;;;1.30;;
18144;SDS011;14857;41.200;-8.326;2022-10-16T10:51:28;3.88;;;1.20;;
18144;SDS011;14857;41.200;-8.326;2022-10-16T10:54:09;2.42;;;2.20;;
18144;SDS011;14857;41.200;-8.326;2022-10-16T10:56:47;1.83;;;1.20;;
18144;SDS011;14857;41.200;-8.326;2022-10-16T10:59:37;1.83;;;0.80;;
18144;SDS011;14857;41.200;-8.326;2022-10-16T11:02:18;2.80;;;0.82;;
18144;SDS011;14857;41.200;-8.326;2022-10-16T11:04:59;2.30;;;1.05;;
18144;SDS011;14857;41.200;-8.326;2022-10-16T11:07:41;6.28;;;0.80;;
18144;SDS011;14857;41.200;-8.326;2022-10-16T11:10:18;1.65;;;0.90;;
18144;SDS011;14857;41.200;-8.326;2022-10-16T11:12:51;3.15;;;1.75;;
18144;SDS011;14857;41.200;-8.326;2022-10-16T11:15:23;4.50;;;1.58;;
18144;SDS011;14857;41.200;-8.326;2022-10-16T11:17:57;3.08;;;1.25;;
18144;SDS011;14857;41.200;-8.326;2022-10-16T11:20:31;3.78;;;1.30;;
18144;SDS011;14857;41.200;-8.326;2022-10-16T11:23:06;1.73;;;0.95;;
18144;SDS011;14857;41.200;-8.326;2022-10-16T11:25:44;2.00;;;1.10;;
18144;SDS011;14857;41.200;-8.326;2022-10-16T11:28:14;2.83;;;1.33;;
18144;SDS011;14857;41.200;-8.326;2022-10-16T11:30:47;1.77;;;1.10;;
18144;SDS011;14857;41.200;-8.326;2022-10-16T11:33:22;2.33;;;1.70;;
18144;SDS011;14857;41.200;-8.326;2022-10-16T11:36:00;2.35;;;1.30;;
18144;SDS011;14857;41.200;-8.326;2022-10-16T11:38:38;1.90;;;1.15;;
18144;SDS011;14857;41.200;-8.326;2022-10-16T11:41:20;6.60;;;1.52;;
18144;SDS011;14857;41.200;-8.326;2022-10-16T11:43:58;3.63;;;1.30;;
18144;SDS011;14857;41.200;-8.326;2022-10-16T11:46:50;2.53;;;1.20;;
18144;SDS011;14857;41.200;-8.326;2022-10-16T11:49:46;1.77;;;1.02;;
18144;SDS011;14857;41.200;-8.326;2022-10-16T11:52:20;2.25;;;1.00;;
18144;SDS011;14857;41.200;-8.326;2022-10-16T11:54:53;1.30;;;0.82;;
18144;SDS011;14857;41.200;-8.326;2022-10-16T11:57:29;1.98;;;1.00;;
18144;SDS011;14857;41.200;-8.326;2022-10-16T12:00:02;2.95;;;1.10;;
18144;SDS011;14857;41.200;-8.326;2022-10-16T12:02:43;0.90;;;0.77;;
18144;SDS011;14857;41.200;-8.326;2022-10-16T12:05:23;0.43;;;0.40;;
18144;SDS011;14857;41.200;-8.326;2022-10-16T12:08:01;2.08;;;0.80;;
18144;SDS011;14857;41.200;-8.326;2022-10-16T12:10:38;0.85;;;0.60;;
18144;SDS011;14857;41.200;-8.326;2022-10-16T12:13:29;2.40;;;0.60;;
18144;SDS011;14857;41.200;-8.326;2022-10-16T12:16:06;1.50;;;0.77;;
18144;SDS011;14857;41.200;-8.326;2022-10-16T12:18:48;0.68;;;0.47;;
18144;SDS011;14857;41.200;-8.326;2022-10-16T12:21:17;0.85;;;0.77;;
18144;SDS011;14857;41.200;-8.326;2022-10-16T12:23:50;1.50;;;0.70;;
18144;SDS011;14857;41.200;-8.326;2022-10-16T12:26:23;0.65;;;0.45;;
18144;SDS011;14857;41.200;-8.326;2022-10-16T12:28:57;1.85;;;0.47;;
18144;SDS011;14857;41.200;-8.326;2022-10-16T12:31:43;0.70;;;0.63;;
18144;SDS011;14857;41.200;-8.326;2022-10-16T12:34:25;0.95;;;0.60;;
18144;SDS011;14857;41.200;-8.326;2022-10-16T12:37:07;3.30;;;0.50;;
18144;SDS011;14857;41.200;-8.326;2022-10-16T12:39:40;1.23;;;0.60;;
18144;SDS011;14857;41.200;-8.326;2022-10-16T12:42:23;2.20;;;0.50;;
18144;SDS011;14857;41.200;-8.326;2022-10-16T12:45:12;0.73;;;0.60;;
18144;SDS011;14857;41.200;-8.326;2022-10-16T12:47:52;0.32;;;0.32;;
18144;SDS011;14857;41.200;-8.326;2022-10-16T12:50:26;0.85;;;0.43;;
18144;SDS011;14857;41.200;-8.326;2022-10-16T12:52:58;0.85;;;0.47;;
18144;SDS011;14857;41.200;-8.326;2022-10-16T12:55:30;1.75;;;0.70;;
18144;SDS011;14857;41.200;-8.326;2022-10-16T12:58:12;2.15;;;0.77;;
18144;SDS011;14857;41.200;-8.326;2022-10-16T13:00:56;0.65;;;0.57;;
18144;SDS011;14857;41.200;-8.326;2022-10-16T13:06:36;2.80;;;1.00;;
18144;SDS011;14857;41.200;-8.326;2022-10-16T13:12:17;0.40;;;0.40;;
18144;SDS011;14857;41.200;-8.326;2022-10-16T13:15:01;1.85;;;0.22;;
18144;SDS011;14857;41.200;-8.326;2022-10-16T13:17:48;0.65;;;0.40;;
18144;SDS011;14857;41.200;-8.326;2022-10-16T13:20:25;1.02;;;0.70;;
18144;SDS011;14857;41.200;-8.326;2022-10-16T13:23:04;1.15;;;1.05;;
18144;SDS011;14857;41.200;-8.326;2022-10-16T13:25:49;4.13;;;1.00;;
18144;SDS011;14857;41.200;-8.326;2022-10-16T13:28:28;3.22;;;1.92;;
18144;SDS011;14857;41.200;-8.326;2022-10-16T13:31:00;4.43;;;2.47;;
18144;SDS011;14857;41.200;-8.326;2022-10-16T13:33:32;4.18;;;1.88;;
18144;SDS011;14857;41.200;-8.326;2022-10-16T13:36:03;6.70;;;1.92;;
18144;SDS011;14857;41.200;-8.326;2022-10-16T13:38:33;1.58;;;0.90;;
18144;SDS011;14857;41.200;-8.326;2022-10-16T13:41:03;2.58;;;0.98;;
18144;SDS011;14857;41.200;-8.326;2022-10-16T13:43:33;4.25;;;1.75;;
18144;SDS011;14857;41.200;-8.326;2022-10-16T13:46:05;4.22;;;1.45;;
18144;SDS011;14857;41.200;-8.326;2022-10-16T13:48:36;2.53;;;1.50;;
18144;SDS011;14857;41.200;-8.326;2022-10-16T13:51:05;4.20;;;2.17;;
18144;SDS011;14857;41.200;-8.326;2022-10-16T13:53:39;2.13;;;1.00;;
18144;SDS011;14857;41.200;-8.326;2022-10-16T13:56:10;1.63;;;0.60;;
18144;SDS011;14857;41.200;-8.326;2022-10-16T13:58:40;1.52;;;0.80;;
18144;SDS011;14857;41.200;-8.326;2022-10-16T14:01:15;1.38;;;0.68;;
18144;SDS011;14857;41.200;-8.326;2022-10-16T14:03:47;2.78;;;1.23;;
18144;SDS011;14857;41.200;-8.326;2022-10-16T14:06:18;1.40;;;0.95;;
18144;SDS011;14857;41.200;-8.326;2022-10-16T14:08:59;1.23;;;0.70;;
18144;SDS011;14857;41.200;-8.326;2022-10-16T14:11:32;1.17;;;0.80;;
18144;SDS011;14857;41.200;-8.326;2022-10-16T14:14:04;1.58;;;1.00;;
18144;SDS011;14857;41.200;-8.326;2022-10-16T14:16:33;3.67;;;1.80;;
18144;SDS011;14857;41.200;-8.326;2022-10-16T14:19:03;4.82;;;1.90;;
18144;SDS011;14857;41.200;-8.326;2022-10-16T14:21:33;2.88;;;1.33;;
18144;SDS011;14857;41.200;-8.326;2022-10-16T14:24:10;4.43;;;1.38;;
18144;SDS011;14857;41.200;-8.326;2022-10-16T14:26:41;3.05;;;1.00;;
18144;SDS011;14857;41.200;-8.326;2022-10-16T14:29:18;2.33;;;1.10;;
18144;SDS011;14857;41.200;-8.326;2022-10-16T14:31:54;1.60;;;0.88;;
18144;SDS011;14857;41.200;-8.326;2022-10-16T14:34:25;1.55;;;0.70;;
18144;SDS011;14857;41.200;-8.326;2022-10-16T14:36:57;1.15;;;0.65;;
18144;SDS011;14857;41.200;-8.326;2022-10-16T14:39:27;1.77;;;1.17;;
18144;SDS011;14857;41.200;-8.326;2022-10-16T14:41:56;0.63;;;0.55;;
18144;SDS011;14857;41.200;-8.326;2022-10-16T14:44:27;1.13;;;0.70;;
18144;SDS011;14857;41.200;-8.326;2022-10-16T14:47:06;2.08;;;0.90;;
18144;SDS011;14857;41.200;-8.326;2022-10-16T14:49:38;0.70;;;0.40;;
18144;SDS011;14857;41.200;-8.326;2022-10-16T14:52:09;2.05;;;0.60;;
18144;SDS011;14857;41.200;-8.326;2022-10-16T14:54:39;2.25;;;1.08;;
18144;SDS011;14857;41.200;-8.326;2022-10-16T14:57:15;3.33;;;1.67;;
18144;SDS011;14857;41.200;-8.326;2022-10-16T14:59:44;2.55;;;1.60;;
18144;SDS011;14857;41.200;-8.326;2022-10-16T15:02:17;4.05;;;2.08;;
18144;SDS011;14857;41.200;-8.326;2022-10-16T15:04:52;3.83;;;2.10;;
18144;SDS011;14857;41.200;-8.326;2022-10-16T15:07:20;2.85;;;1.58;;
18144;SDS011;14857;41.200;-8.326;2022-10-16T15:09:50;3.67;;;1.83;;
18144;SDS011;14857;41.200;-8.326;2022-10-16T15:12:19;2.00;;;1.38;;
18144;SDS011;14857;41.200;-8.326;2022-10-16T15:14:48;1.58;;;0.70;;
18144;SDS011;14857;41.200;-8.326;2022-10-16T15:17:17;2.33;;;1.38;;
18144;SDS011;14857;41.200;-8.326;2022-10-16T15:19:47;3.05;;;1.63;;